Time;durP1;ratioP1;P1;durP2;ratioP2;P2;SDS_P1;SDS_P2;PMS_P1;PMS_P2;Temp;Humidity;BMP_temperature;BMP_pressure;BME280_temperature;BME280_humidity;BME280_pressure;Samples;Min_cycle;Max_cycle;Signal;HPM_P1;HPM_P2
2022/05/01 00:00:58;;;;;;;28.88;19.60;;;;;;;;;;5022824;28;20108;-65
2022/05/01 00:03:36;;;;;;;29.60;19.70;;;;;;;;;;5022477;28;20149;-64
2022/05/01 00:06:03;;;;;;;30.45;19.63;;;;;;;;;;5019687;28;20092;-64
2022/05/01 00:08:29;;;;;;;28.95;20.17;;;;;;;;;;5019532;28;20527;-63
2022/05/01 00:10:57;;;;;;;28.83;20.42;;;;;;;;;;5019560;28;20306;-65
2022/05/01 00:13:22;;;;;;;31.92;20.55;;;;;;;;;;5019085;28;20045;-64
2022/05/01 00:15:48;;;;;;;28.70;19.10;;;;;;;;;;5018636;28;20260;-63
2022/05/01 00:18:14;;;;;;;26.30;17.52;;;;;;;;;;5019098;28;20040;-64
2022/05/01 00:20:39;;;;;;;27.10;17.38;;;;;;;;;;5017977;28;20148;-64
2022/05/01 00:23:04;;;;;;;26.77;18.30;;;;;;;;;;5019110;28;20029;-64
2022/05/01 00:25:33;;;;;;;29.23;17.77;;;;;;;;;;5020373;28;20029;-64
2022/05/01 00:27:58;;;;;;;24.40;17.70;;;;;;;;;;5021504;28;20044;-64
2022/05/01 00:30:26;;;;;;;25.95;18.25;;;;;;;;;;5032731;28;20036;-64
2022/05/01 00:38:20;;;;;;;24.42;17.13;;;;;;;;;;5001545;28;20829;-64
2022/05/01 00:40:48;;;;;;;26.58;16.95;;;;;;;;;;5004882;28;20044;-64
2022/05/01 00:43:13;;;;;;;27.95;18.00;;;;;;;;;;5000145;28;20139;-64
2022/05/01 00:45:41;;;;;;;25.25;16.80;;;;;;;;;;5000021;28;20121;-64
2022/05/01 00:48:06;;;;;;;25.38;16.92;;;;;;;;;;5001740;28;20021;-64
2022/05/01 00:50:32;;;;;;;25.15;17.08;;;;;;;;;;5016190;28;20067;-63
2022/05/01 00:52:58;;;;;;;26.80;16.20;;;;;;;;;;5000804;28;20290;-63
2022/05/01 00:55:23;;;;;;;25.88;16.88;;;;;;;;;;5002116;28;20043;-63
2022/05/01 00:57:49;;;;;;;24.33;16.48;;;;;;;;;;5001630;28;20068;-63
2022/05/01 01:00:16;;;;;;;24.08;15.45;;;;;;;;;;5002883;28;20367;-64
2022/05/01 01:02:41;;;;;;;25.05;15.27;;;;;;;;;;5005289;28;20057;-64
2022/05/01 01:05:07;;;;;;;23.90;16.13;;;;;;;;;;4990962;28;20028;-64
2022/05/01 01:07:33;;;;;;;21.98;15.65;;;;;;;;;;5005550;28;20028;-63
2022/05/01 01:09:59;;;;;;;24.70;15.82;;;;;;;;;;5004129;28;20033;-64
2022/05/01 01:15:09;;;;;;;27.50;16.25;;;;;;;;;;5004990;28;20039;-63
2022/05/01 01:17:38;;;;;;;26.65;16.10;;;;;;;;;;5004868;28;20029;-64
2022/05/01 01:20:17;;;;;;;25.15;17.17;;;;;;;;;;5004398;28;20421;-63
2022/05/01 01:22:44;;;;;;;30.35;16.95;;;;;;;;;;5005351;28;20616;-63
2022/05/01 01:25:10;;;;;;;22.05;16.63;;;;;;;;;;5005097;28;20060;-64
2022/05/01 01:27:36;;;;;;;26.30;17.17;;;;;;;;;;5006555;28;20928;-63
2022/05/01 01:32:49;;;;;;;26.02;17.10;;;;;;;;;;5005705;28;20194;-65
2022/05/01 01:35:15;;;;;;;29.45;17.85;;;;;;;;;;5019225;28;20116;-64
2022/05/01 01:37:44;;;;;;;28.50;18.13;;;;;;;;;;5002756;28;20123;-63
2022/05/01 01:40:10;;;;;;;27.73;16.60;;;;;;;;;;5004544;28;20195;-64
2022/05/01 01:42:39;;;;;;;25.20;16.65;;;;;;;;;;5005050;28;20060;-63
2022/05/01 01:45:06;;;;;;;26.55;17.00;;;;;;;;;;5020010;28;20247;-64
2022/05/01 01:47:34;;;;;;;25.83;18.40;;;;;;;;;;5004755;28;20052;-64
2022/05/01 01:49:59;;;;;;;25.33;17.48;;;;;;;;;;5002509;28;20037;-64
2022/05/01 01:52:24;;;;;;;28.70;18.73;;;;;;;;;;5002540;28;20560;-63
2022/05/01 01:54:51;;;;;;;23.42;17.13;;;;;;;;;;5005418;28;20029;-64
2022/05/01 01:57:16;;;;;;;26.92;16.55;;;;;;;;;;5004113;28;20106;-65
2022/05/01 01:59:44;;;;;;;26.33;16.95;;;;;;;;;;5003123;28;20029;-63
2022/05/01 02:02:09;;;;;;;26.17;17.55;;;;;;;;;;5007199;28;20063;-63
2022/05/01 02:04:34;;;;;;;29.02;17.67;;;;;;;;;;5003875;28;20539;-65
2022/05/01 02:07:02;;;;;;;26.08;18.20;;;;;;;;;;5004399;28;20325;-64
2022/05/01 02:09:30;;;;;;;29.00;19.20;;;;;;;;;;5003557;28;21737;-62
2022/05/01 02:11:57;;;;;;;31.73;18.25;;;;;;;;;;5007273;28;20072;-63
2022/05/01 02:14:22;;;;;;;26.92;17.52;;;;;;;;;;5004454;28;20024;-65
2022/05/01 02:16:48;;;;;;;28.73;18.08;;;;;;;;;;5004556;28;20301;-63
2022/05/01 02:19:14;;;;;;;26.73;18.33;;;;;;;;;;5001311;28;20036;-65
2022/05/01 02:21:40;;;;;;;27.80;18.95;;;;;;;;;;5003987;28;20546;-67
2022/05/01 02:24:07;;;;;;;31.52;18.83;;;;;;;;;;5004105;28;20041;-65
2022/05/01 02:26:32;;;;;;;26.58;18.52;;;;;;;;;;5004007;28;20055;-66
2022/05/01 02:28:59;;;;;;;32.53;20.15;;;;;;;;;;5004014;28;20037;-66
2022/05/01 02:31:32;;;;;;;29.70;19.73;;;;;;;;;;5007198;28;20037;-64
2022/05/01 02:33:59;;;;;;;31.58;20.42;;;;;;;;;;5002456;28;20426;-63
2022/05/01 02:36:27;;;;;;;30.70;18.88;;;;;;;;;;5003010;28;20048;-63
2022/05/01 02:38:54;;;;;;;32.58;21.00;;;;;;;;;;5018517;28;20164;-65
2022/05/01 02:41:22;;;;;;;31.33;21.20;;;;;;;;;;5001306;28;20022;-65
2022/05/01 02:43:48;;;;;;;31.67;20.70;;;;;;;;;;5007271;28;20418;-62
2022/05/01 02:46:14;;;;;;;30.50;19.45;;;;;;;;;;5002832;28;20119;-63
2022/05/01 02:48:39;;;;;;;28.08;19.58;;;;;;;;;;5003586;28;20529;-64
2022/05/01 02:51:07;;;;;;;31.20;21.08;;;;;;;;;;5002805;28;20113;-63
2022/05/01 02:53:34;;;;;;;30.73;20.23;;;;;;;;;;5001757;28;20060;-64
2022/05/01 02:56:03;;;;;;;31.75;20.05;;;;;;;;;;5006606;28;20083;-63
2022/05/01 02:58:29;;;;;;;29.77;20.27;;;;;;;;;;5003375;28;20044;-64
2022/05/01 03:00:54;;;;;;;29.83;20.20;;;;;;;;;;5002997;28;20372;-63
2022/05/01 03:03:20;;;;;;;34.08;20.95;;;;;;;;;;5003247;28;20360;-63
2022/05/01 03:05:45;;;;;;;30.38;20.15;;;;;;;;;;5001626;28;20376;-64
2022/05/01 03:08:12;;;;;;;29.98;19.80;;;;;;;;;;5002764;28;20065;-64
2022/05/01 03:10:37;;;;;;;29.80;19.60;;;;;;;;;;5001680;28;20748;-64
2022/05/01 03:13:03;;;;;;;34.08;20.45;;;;;;;;;;5003522;28;20147;-64
2022/05/01 03:15:30;;;;;;;31.05;20.52;;;;;;;;;;5002593;28;20128;-64
2022/05/01 03:23:23;;;;;;;31.17;19.42;;;;;;;;;;5002462;28;20032;-63
2022/05/01 03:25:51;;;;;;;31.63;20.02;;;;;;;;;;5002813;28;20028;-64
2022/05/01 03:28:16;;;;;;;35.42;20.65;;;;;;;;;;5002621;28;20168;-64
2022/05/01 03:30:42;;;;;;;27.83;18.77;;;;;;;;;;5002241;28;20748;-64
2022/05/01 03:33:07;;;;;;;31.08;19.30;;;;;;;;;;5002621;28;20025;-63
2022/05/01 03:35:35;;;;;;;28.52;19.48;;;;;;;;;;4999619;28;20080;-64
2022/05/01 03:38:03;;;;;;;31.85;19.77;;;;;;;;;;5002327;28;20061;-64
2022/05/01 03:40:28;;;;;;;32.65;20.77;;;;;;;;;;5002014;28;20604;-63
2022/05/01 03:42:59;;;;;;;32.28;21.80;;;;;;;;;;5002267;28;20282;-63
2022/05/01 03:45:24;;;;;;;35.08;21.15;;;;;;;;;;5005056;28;20041;-64
2022/05/01 03:47:49;;;;;;;35.28;21.27;;;;;;;;;;5006197;28;20040;-65
2022/05/01 03:50:15;;;;;;;33.08;21.63;;;;;;;;;;5002181;28;20030;-65
2022/05/01 03:52:43;;;;;;;34.38;21.42;;;;;;;;;;5002251;28;20040;-64
2022/05/01 03:55:08;;;;;;;32.35;21.13;;;;;;;;;;5002647;28;20067;-64
2022/05/01 03:57:34;;;;;;;34.97;21.77;;;;;;;;;;5001030;28;20225;-64
2022/05/01 03:59:59;;;;;;;31.70;21.33;;;;;;;;;;5016887;28;20069;-64
2022/05/01 04:02:24;;;;;;;35.25;21.55;;;;;;;;;;4999765;28;20045;-65
2022/05/01 04:04:52;;;;;;;38.03;22.73;;;;;;;;;;5002005;28;20028;-63
2022/05/01 04:07:17;;;;;;;35.15;22.83;;;;;;;;;;4999609;28;20040;-64
2022/05/01 04:09:43;;;;;;;35.28;21.95;;;;;;;;;;5006134;28;20028;-63
2022/05/01 04:12:08;;;;;;;34.47;22.20;;;;;;;;;;5001728;28;20206;-65
2022/05/01 04:14:34;;;;;;;36.88;23.17;;;;;;;;;;5002147;28;20037;-64
2022/05/01 04:16:59;;;;;;;40.35;23.58;;;;;;;;;;4999778;28;20328;-64
2022/05/01 04:19:25;;;;;;;34.65;22.38;;;;;;;;;;5016425;28;20039;-64
2022/05/01 04:21:53;;;;;;;38.20;23.63;;;;;;;;;;5002148;28;20017;-64
2022/05/01 04:24:18;;;;;;;37.13;22.27;;;;;;;;;;5001627;28;20029;-64
2022/05/01 04:26:44;;;;;;;35.22;23.67;;;;;;;;;;5001732;28;20403;-63
2022/05/01 04:31:54;;;;;;;39.20;23.67;;;;;;;;;;5001392;28;20053;-64
2022/05/01 04:34:20;;;;;;;39.00;22.88;;;;;;;;;;4982720;28;20121;-64
2022/05/01 04:36:45;;;;;;;44.03;25.80;;;;;;;;;;5001139;28;20237;-64
2022/05/01 04:39:10;;;;;;;39.22;24.33;;;;;;;;;;4983019;28;20049;-63
2022/05/01 04:41:36;;;;;;;40.25;25.20;;;;;;;;;;5001130;28;20049;-64
2022/05/01 04:44:03;;;;;;;41.65;25.38;;;;;;;;;;4998986;28;20560;-65
2022/05/01 04:46:29;;;;;;;41.20;25.20;;;;;;;;;;5001770;28;20285;-64
2022/05/01 04:48:54;;;;;;;40.05;24.00;;;;;;;;;;5001863;28;20132;-63
2022/05/01 04:51:20;;;;;;;43.05;24.17;;;;;;;;;;5000904;28;20034;-64
2022/05/01 04:53:45;;;;;;;42.13;25.58;;;;;;;;;;5002039;28;20043;-64
2022/05/01 04:58:56;;;;;;;40.25;24.55;;;;;;;;;;5007228;28;20671;-64
2022/05/01 05:01:24;;;;;;;37.83;24.65;;;;;;;;;;5007097;28;20238;-64
2022/05/01 05:03:50;;;;;;;37.80;24.40;;;;;;;;;;5003743;28;20382;-64
2022/05/01 05:06:15;;;;;;;39.78;24.50;;;;;;;;;;5005777;28;20163;-64
2022/05/01 05:11:25;;;;;;;41.22;24.77;;;;;;;;;;5006298;28;20025;-65
2022/05/01 05:13:53;;;;;;;37.40;23.83;;;;;;;;;;5004973;28;20495;-65
2022/05/01 05:16:19;;;;;;;35.72;24.27;;;;;;;;;;5006146;28;20102;-65
2022/05/01 05:18:44;;;;;;;36.22;23.98;;;;;;;;;;5002735;28;20045;-65
2022/05/01 05:21:09;;;;;;;35.20;22.70;;;;;;;;;;5007532;28;20041;-64
2022/05/01 05:23:35;;;;;;;35.35;23.15;;;;;;;;;;5005562;28;20041;-64
2022/05/01 05:26:00;;;;;;;34.50;21.85;;;;;;;;;;5001336;28;20401;-64
2022/05/01 05:28:25;;;;;;;35.53;20.85;;;;;;;;;;5002676;28;20075;-64
2022/05/01 05:30:51;;;;;;;35.78;21.83;;;;;;;;;;5000932;28;20145;-66
2022/05/01 05:33:19;;;;;;;32.00;21.42;;;;;;;;;;5003959;28;20481;-65
2022/05/01 05:35:44;;;;;;;28.83;20.00;;;;;;;;;;5004242;28;20030;-66
2022/05/01 05:38:14;;;;;;;30.95;20.92;;;;;;;;;;5004170;28;20065;-65
2022/05/01 05:40:44;;;;;;;28.10;19.50;;;;;;;;;;5003480;28;20269;-65
2022/05/01 05:43:09;;;;;;;31.33;19.23;;;;;;;;;;5002082;28;20318;-65
2022/05/01 05:45:36;;;;;;;27.92;19.42;;;;;;;;;;5001693;28;20318;-65
2022/05/01 05:48:02;;;;;;;29.30;18.60;;;;;;;;;;5006015;28;20068;-65
2022/05/01 05:50:28;;;;;;;30.13;19.30;;;;;;;;;;5003343;28;20229;-66
2022/05/01 05:52:53;;;;;;;28.08;19.02;;;;;;;;;;5006417;28;20032;-66
2022/05/01 05:55:19;;;;;;;23.60;18.02;;;;;;;;;;5005043;28;20029;-66
2022/05/01 05:57:44;;;;;;;25.23;18.00;;;;;;;;;;5009856;28;20029;-66
2022/05/01 06:00:12;;;;;;;26.17;17.15;;;;;;;;;;5005049;28;20116;-66
2022/05/01 06:02:37;;;;;;;24.80;17.25;;;;;;;;;;5004276;28;20022;-66
2022/05/01 06:05:03;;;;;;;24.40;16.38;;;;;;;;;;5006032;28;20162;-66
2022/05/01 06:07:28;;;;;;;24.50;17.90;;;;;;;;;;5005843;28;20025;-66
2022/05/01 06:09:57;;;;;;;29.85;16.95;;;;;;;;;;5003655;28;20284;-66
2022/05/01 06:12:22;;;;;;;22.15;15.88;;;;;;;;;;5008589;28;20032;-66
2022/05/01 06:14:47;;;;;;;22.60;16.48;;;;;;;;;;5008663;28;20654;-66
2022/05/01 06:17:13;;;;;;;25.40;17.05;;;;;;;;;;5004918;28;20362;-65
2022/05/01 06:19:39;;;;;;;24.65;16.85;;;;;;;;;;5005402;28;20041;-66
2022/05/01 06:22:05;;;;;;;28.73;17.10;;;;;;;;;;5006193;28;20293;-63
2022/05/01 06:24:30;;;;;;;21.95;15.90;;;;;;;;;;5003909;28;20087;-64
2022/05/01 06:26:55;;;;;;;24.73;16.95;;;;;;;;;;5002390;28;20032;-64
2022/05/01 06:29:23;;;;;;;25.73;16.75;;;;;;;;;;5003564;28;20448;-65
2022/05/01 06:31:49;;;;;;;23.92;16.30;;;;;;;;;;5008357;28;20711;-63
2022/05/01 06:34:15;;;;;;;20.50;15.07;;;;;;;;;;5004542;28;20411;-63
2022/05/01 06:36:41;;;;;;;21.50;14.60;;;;;;;;;;5004924;28;20033;-63
2022/05/01 06:39:09;;;;;;;23.17;16.08;;;;;;;;;;5003692;28;20246;-65
2022/05/01 06:41:34;;;;;;;18.52;13.68;;;;;;;;;;5004895;28;20048;-65
2022/05/01 06:43:59;;;;;;;18.52;13.95;;;;;;;;;;5007517;28;20060;-63
2022/05/01 06:46:25;;;;;;;18.83;12.95;;;;;;;;;;5004514;28;20469;-65
2022/05/01 06:48:50;;;;;;;18.80;13.27;;;;;;;;;;5004415;28;20075;-63
2022/05/01 06:51:16;;;;;;;15.05;12.35;;;;;;;;;;5003209;28;20127;-62
2022/05/01 06:53:41;;;;;;;17.17;11.98;;;;;;;;;;5004651;28;20190;-64
2022/05/01 06:56:09;;;;;;;16.80;12.18;;;;;;;;;;5001515;28;20573;-63
2022/05/01 06:58:35;;;;;;;17.23;11.55;;;;;;;;;;5001437;28;20044;-65
2022/05/01 07:01:00;;;;;;;17.13;11.35;;;;;;;;;;5018906;28;20033;-64
2022/05/01 07:03:28;;;;;;;15.25;11.20;;;;;;;;;;5004020;28;20102;-64
2022/05/01 07:05:54;;;;;;;13.93;10.00;;;;;;;;;;5003502;28;20185;-63
2022/05/01 07:08:19;;;;;;;13.93;10.45;;;;;;;;;;5001828;28;20044;-64
2022/05/01 07:10:45;;;;;;;16.02;11.43;;;;;;;;;;5003679;28;20029;-63
2022/05/01 07:13:11;;;;;;;16.73;11.32;;;;;;;;;;5003138;28;20193;-64
2022/05/01 07:15:37;;;;;;;18.63;13.02;;;;;;;;;;5003965;28;20033;-63
2022/05/01 07:18:02;;;;;;;18.27;12.35;;;;;;;;;;5006673;28;20090;-64
2022/05/01 07:20:33;;;;;;;18.90;11.95;;;;;;;;;;5000647;28;20232;-63
2022/05/01 07:22:58;;;;;;;15.85;11.70;;;;;;;;;;5003281;28;20057;-64
2022/05/01 07:25:24;;;;;;;16.00;11.85;;;;;;;;;;5002706;28;20352;-62
2022/05/01 07:27:49;;;;;;;15.80;12.13;;;;;;;;;;5000934;28;20025;-62
2022/05/01 07:30:14;;;;;;;18.30;12.02;;;;;;;;;;5002104;28;20501;-63
2022/05/01 07:32:40;;;;;;;17.80;11.73;;;;;;;;;;5004112;28;20036;-63
2022/05/01 07:35:06;;;;;;;19.20;12.65;;;;;;;;;;5001320;28;20753;-65
2022/05/01 07:37:31;;;;;;;20.27;14.25;;;;;;;;;;5006761;28;20041;-63
2022/05/01 07:39:57;;;;;;;18.20;14.35;;;;;;;;;;5000983;28;20037;-64
2022/05/01 07:42:23;;;;;;;20.20;14.10;;;;;;;;;;5003462;28;20111;-63
2022/05/01 07:44:49;;;;;;;20.90;14.38;;;;;;;;;;5006072;28;20404;-64
2022/05/01 07:47:14;;;;;;;19.95;14.13;;;;;;;;;;5002741;28;20025;-63
2022/05/01 07:49:40;;;;;;;22.13;13.77;;;;;;;;;;5002020;28;20025;-63
2022/05/01 07:52:06;;;;;;;20.25;14.32;;;;;;;;;;5002735;28;20025;-64
2022/05/01 07:54:33;;;;;;;20.02;13.95;;;;;;;;;;4984105;28;20029;-62
2022/05/01 07:56:59;;;;;;;19.35;14.35;;;;;;;;;;5006378;28;20520;-63
2022/05/01 07:59:24;;;;;;;19.95;14.98;;;;;;;;;;5001971;28;20025;-63
2022/05/01 08:01:49;;;;;;;21.15;14.25;;;;;;;;;;5002849;28;20359;-64
2022/05/01 08:04:29;;;;;;;22.77;14.27;;;;;;;;;;5003426;28;20234;-63
2022/05/01 08:06:58;;;;;;;22.90;15.57;;;;;;;;;;5000275;28;20622;-63
2022/05/01 08:09:24;;;;;;;22.45;15.60;;;;;;;;;;4987320;28;20071;-63
2022/05/01 08:11:49;;;;;;;20.83;14.77;;;;;;;;;;4983619;28;20220;-64
2022/05/01 08:14:14;;;;;;;22.60;14.98;;;;;;;;;;5005923;28;20162;-64
2022/05/01 08:16:40;;;;;;;22.75;15.48;;;;;;;;;;5002345;28;20017;-63
2022/05/01 08:21:50;;;;;;;25.80;17.75;;;;;;;;;;5004416;28;20025;-63
2022/05/01 08:24:15;;;;;;;29.20;20.10;;;;;;;;;;4987520;28;20186;-64
2022/05/01 08:26:42;;;;;;;25.77;17.05;;;;;;;;;;5002599;28;20120;-65
2022/05/01 08:29:07;;;;;;;20.85;15.75;;;;;;;;;;4988711;28;20040;-64
2022/05/01 08:31:33;;;;;;;24.35;16.13;;;;;;;;;;5000330;28;20055;-63
2022/05/01 08:33:58;;;;;;;24.30;16.38;;;;;;;;;;5001258;28;20139;-63
2022/05/01 08:36:28;;;;;;;23.02;16.83;;;;;;;;;;5001567;28;20674;-63
2022/05/01 08:38:53;;;;;;;25.42;17.70;;;;;;;;;;5000053;28;20045;-63
2022/05/01 08:41:18;;;;;;;23.98;17.08;;;;;;;;;;5001891;28;20052;-64
2022/05/01 08:43:43;;;;;;;27.45;17.48;;;;;;;;;;4999826;28;20309;-63
2022/05/01 08:46:11;;;;;;;24.90;19.38;;;;;;;;;;5001934;28;20032;-65
2022/05/01 08:48:37;;;;;;;20.73;17.05;;;;;;;;;;5001596;28;20628;-62
2022/05/01 08:51:03;;;;;;;22.30;16.45;;;;;;;;;;5001668;28;20040;-64
2022/05/01 08:53:29;;;;;;;21.45;14.50;;;;;;;;;;5000083;28;20052;-64
2022/05/01 08:55:55;;;;;;;21.08;15.10;;;;;;;;;;4999311;28;20349;-64
2022/05/01 08:58:21;;;;;;;20.20;15.35;;;;;;;;;;5001490;28;20120;-66
2022/05/01 09:00:51;;;;;;;22.08;14.88;;;;;;;;;;5001051;28;20327;-66
2022/05/01 09:03:19;;;;;;;22.48;15.48;;;;;;;;;;5004824;28;20461;-65
2022/05/01 09:05:45;;;;;;;18.80;14.38;;;;;;;;;;5000976;28;20108;-66
2022/05/01 09:08:11;;;;;;;18.30;14.55;;;;;;;;;;5001938;28;20275;-66
2022/05/01 09:10:40;;;;;;;18.60;13.90;;;;;;;;;;5001262;28;20022;-65
2022/05/01 09:13:06;;;;;;;19.48;13.88;;;;;;;;;;5001546;28;20485;-65
2022/05/01 09:15:41;;;;;;;16.92;13.32;;;;;;;;;;4999804;28;20033;-65
2022/05/01 09:18:14;;;;;;;20.85;14.23;;;;;;;;;;4998834;28;20056;-63
2022/05/01 09:20:58;;;;;;;18.85;13.95;;;;;;;;;;5001083;28;20340;-63
2022/05/01 09:23:38;;;;;;;19.35;13.80;;;;;;;;;;5005720;28;20021;-63
2022/05/01 09:26:04;;;;;;;21.42;15.43;;;;;;;;;;5005297;28;20036;-63
2022/05/01 09:28:29;;;;;;;23.50;15.10;;;;;;;;;;5002887;28;20033;-63
2022/05/01 09:30:54;;;;;;;19.30;14.60;;;;;;;;;;5004995;28;20087;-63
2022/05/01 09:33:20;;;;;;;17.63;13.40;;;;;;;;;;5008201;28;20624;-63
2022/05/01 09:35:46;;;;;;;21.08;13.90;;;;;;;;;;5006242;28;20029;-64
2022/05/01 09:38:25;;;;;;;21.55;14.75;;;;;;;;;;5005262;28;21937;-64
2022/05/01 09:40:56;;;;;;;20.27;14.30;;;;;;;;;;5005192;28;20482;-64
2022/05/01 09:43:41;;;;;;;19.38;13.65;;;;;;;;;;5004089;28;20324;-63
2022/05/01 09:46:12;;;;;;;19.33;13.73;;;;;;;;;;5004624;28;20033;-63
2022/05/01 09:48:38;;;;;;;19.05;13.85;;;;;;;;;;5004351;28;20528;-63
2022/05/01 09:51:19;;;;;;;21.20;14.80;;;;;;;;;;5004461;28;20116;-63
2022/05/01 09:53:45;;;;;;;18.65;13.70;;;;;;;;;;5002032;28;20352;-64
2022/05/01 09:56:10;;;;;;;19.85;13.93;;;;;;;;;;5008341;28;20033;-63
2022/05/01 09:58:40;;;;;;;22.50;16.95;;;;;;;;;;5003170;28;20410;-63
2022/05/01 10:01:15;;;;;;;19.55;15.30;;;;;;;;;;5004226;28;20017;-62
2022/05/01 10:03:41;;;;;;;21.30;15.15;;;;;;;;;;5004395;28;20025;-62
2022/05/01 10:06:10;;;;;;;18.85;15.00;;;;;;;;;;5003021;28;20559;-63
2022/05/01 10:08:36;;;;;;;19.98;13.32;;;;;;;;;;5003899;28;20444;-62
2022/05/01 10:11:02;;;;;;;17.77;13.43;;;;;;;;;;5004484;28;20771;-64
2022/05/01 10:13:30;;;;;;;16.80;12.55;;;;;;;;;;5004309;28;20064;-64
2022/05/01 10:15:56;;;;;;;16.15;12.13;;;;;;;;;;5001773;28;20028;-62
2022/05/01 10:18:22;;;;;;;19.92;13.27;;;;;;;;;;5003620;28;20116;-63
2022/05/01 10:20:48;;;;;;;16.42;12.30;;;;;;;;;;5003694;28;20036;-63
2022/05/01 10:23:14;;;;;;;17.42;12.48;;;;;;;;;;5003868;28;20251;-62
2022/05/01 10:25:44;;;;;;;14.57;11.70;;;;;;;;;;5003276;28;20493;-64
2022/05/01 10:28:30;;;;;;;17.35;12.43;;;;;;;;;;5002372;28;20059;-63
2022/05/01 10:34:18;;;;;;;16.05;11.63;;;;;;;;;;5003383;28;20143;-63
2022/05/01 10:36:58;;;;;;;14.70;12.07;;;;;;;;;;5004013;28;20525;-63
2022/05/01 10:39:26;;;;;;;16.10;11.93;;;;;;;;;;5002855;28;20049;-63
2022/05/01 10:41:51;;;;;;;14.60;12.10;;;;;;;;;;5003700;28;20146;-63
2022/05/01 10:44:29;;;;;;;17.63;11.68;;;;;;;;;;5001723;28;20025;-62
2022/05/01 10:46:55;;;;;;;20.23;12.52;;;;;;;;;;5001918;28;20076;-62
2022/05/01 10:49:39;;;;;;;17.23;12.82;;;;;;;;;;5003681;28;20851;-63
2022/05/01 10:52:16;;;;;;;16.63;12.02;;;;;;;;;;5003023;28;20122;-62
2022/05/01 10:54:52;;;;;;;14.68;11.50;;;;;;;;;;4989696;28;20044;-63
2022/05/01 10:57:18;;;;;;;15.05;11.63;;;;;;;;;;5003232;28;20029;-63
2022/05/01 10:59:46;;;;;;;16.13;11.82;;;;;;;;;;5003467;28;20569;-63
2022/05/01 11:02:35;;;;;;;13.25;11.55;;;;;;;;;;5003125;28;20029;-63
2022/05/01 11:05:00;;;;;;;15.15;11.43;;;;;;;;;;5002135;28;20074;-63
2022/05/01 11:07:26;;;;;;;16.60;11.82;;;;;;;;;;5003352;28;20017;-64
2022/05/01 11:09:53;;;;;;;16.30;11.48;;;;;;;;;;5001154;28;20470;-62
2022/05/01 11:12:21;;;;;;;17.90;12.18;;;;;;;;;;5003217;28;20135;-63
2022/05/01 11:14:55;;;;;;;16.77;11.57;;;;;;;;;;5003074;28;20516;-62
2022/05/01 11:17:28;;;;;;;16.30;11.80;;;;;;;;;;5002988;28;21950;-63
2022/05/01 11:20:02;;;;;;;13.95;10.95;;;;;;;;;;4995520;28;20025;-62
2022/05/01 11:22:28;;;;;;;15.55;11.02;;;;;;;;;;5002876;28;20040;-63
2022/05/01 11:24:54;;;;;;;14.20;11.68;;;;;;;;;;5002399;28;20430;-63
2022/05/01 11:27:21;;;;;;;13.50;11.40;;;;;;;;;;5002098;28;20098;-63
2022/05/01 11:30:05;;;;;;;14.15;12.02;;;;;;;;;;5002939;28;20160;-63
2022/05/01 11:32:42;;;;;;;14.32;11.43;;;;;;;;;;5002858;28;20723;-63
2022/05/01 11:35:11;;;;;;;12.65;10.85;;;;;;;;;;5002433;28;20036;-63
2022/05/01 11:37:47;;;;;;;14.15;10.82;;;;;;;;;;5001818;28;20265;-62
2022/05/01 11:40:20;;;;;;;15.38;10.93;;;;;;;;;;5000503;28;20037;-63
2022/05/01 11:42:48;;;;;;;12.88;10.10;;;;;;;;;;5002286;28;20354;-61
2022/05/01 11:45:13;;;;;;;13.45;10.50;;;;;;;;;;4999378;28;20037;-62
2022/05/01 11:47:40;;;;;;;13.90;10.23;;;;;;;;;;5002479;28;20029;-64
2022/05/01 11:50:06;;;;;;;16.55;10.77;;;;;;;;;;5000467;28;20101;-62
2022/05/01 11:52:35;;;;;;;12.02;10.30;;;;;;;;;;5005758;28;20051;-63
2022/05/01 11:55:06;;;;;;;15.05;10.63;;;;;;;;;;5002417;28;20107;-63
2022/05/01 12:03:01;;;;;;;14.57;10.05;;;;;;;;;;5002157;28;20204;-62
2022/05/01 12:05:45;;;;;;;14.40;10.93;;;;;;;;;;5001276;28;20050;-63
2022/05/01 12:08:11;;;;;;;13.45;9.93;;;;;;;;;;5001865;28;20019;-63
2022/05/01 12:10:41;;;;;;;12.77;9.50;;;;;;;;;;5000951;28;20075;-62
2022/05/01 12:13:20;;;;;;;13.75;9.63;;;;;;;;;;5001949;28;20159;-62
2022/05/01 12:15:46;;;;;;;12.52;9.35;;;;;;;;;;5000351;28;20036;-62
2022/05/01 12:18:12;;;;;;;13.82;9.52;;;;;;;;;;5002183;28;20076;-62
2022/05/01 12:20:38;;;;;;;12.50;9.15;;;;;;;;;;4999031;28;20203;-63
2022/05/01 12:23:03;;;;;;;9.63;8.63;;;;;;;;;;5001410;28;20202;-63
2022/05/01 12:25:30;;;;;;;13.23;8.80;;;;;;;;;;4999601;28;20840;-63
2022/05/01 12:27:56;;;;;;;11.65;8.82;;;;;;;;;;5001248;28;20352;-66
2022/05/01 12:30:22;;;;;;;11.45;8.77;;;;;;;;;;4999652;28;20589;-65
2022/05/01 12:32:54;;;;;;;10.45;8.45;;;;;;;;;;5001819;28;20059;-66
2022/05/01 12:35:21;;;;;;;11.15;8.93;;;;;;;;;;4999668;28;20025;-68
2022/05/01 12:37:50;;;;;;;12.82;8.65;;;;;;;;;;5001595;28;20053;-67
2022/05/01 12:45:53;;;;;;;12.00;8.35;;;;;;;;;;5004317;28;20082;-67
2022/05/01 12:48:20;;;;;;;12.70;7.97;;;;;;;;;;5001004;28;20029;-66
2022/05/01 12:50:54;;;;;;;12.82;8.02;;;;;;;;;;4999788;28;20136;-66
2022/05/01 12:53:21;;;;;;;13.52;8.65;;;;;;;;;;5001501;28;20118;-66
2022/05/01 12:55:46;;;;;;;12.43;8.10;;;;;;;;;;5001840;28;20246;-66
2022/05/01 12:58:11;;;;;;;14.80;9.10;;;;;;;;;;5004848;28;20275;-66
2022/05/01 13:00:44;;;;;;;11.50;8.93;;;;;;;;;;5005585;28;20032;-66
2022/05/01 13:03:24;;;;;;;11.48;8.77;;;;;;;;;;5004056;28;20021;-66
2022/05/01 13:05:58;;;;;;;12.55;8.90;;;;;;;;;;5003053;28;20453;-66
2022/05/01 13:08:24;;;;;;;11.68;8.25;;;;;;;;;;5004841;28;20041;-66
2022/05/01 13:11:08;;;;;;;12.90;9.00;;;;;;;;;;5003800;28;20127;-67
2022/05/01 13:13:53;;;;;;;12.73;8.35;;;;;;;;;;5005611;28;20036;-67
2022/05/01 13:16:22;;;;;;;11.85;8.07;;;;;;;;;;5005065;28;20024;-65
2022/05/01 13:18:54;;;;;;;12.75;7.68;;;;;;;;;;5005433;28;20030;-66
2022/05/01 13:21:20;;;;;;;13.63;8.18;;;;;;;;;;5004649;28;20253;-65
2022/05/01 13:23:46;;;;;;;11.45;7.68;;;;;;;;;;5004855;28;20025;-65
2022/05/01 13:26:12;;;;;;;8.05;6.32;;;;;;;;;;5005159;28;20024;-66
2022/05/01 13:28:37;;;;;;;11.85;6.80;;;;;;;;;;5005271;28;20025;-66
2022/05/01 13:31:03;;;;;;;11.27;6.65;;;;;;;;;;5004625;28;20371;-65
2022/05/01 13:33:31;;;;;;;7.97;6.20;;;;;;;;;;5003091;28;20291;-66
2022/05/01 13:35:56;;;;;;;9.10;6.60;;;;;;;;;;5004566;28;20142;-65
2022/05/01 13:38:22;;;;;;;8.55;5.72;;;;;;;;;;5004766;28;20096;-65
2022/05/01 13:46:15;;;;;;;10.00;6.13;;;;;;;;;;5004816;28;20029;-66
2022/05/01 13:48:41;;;;;;;8.82;6.07;;;;;;;;;;5004377;28;20583;-67
2022/05/01 13:51:06;;;;;;;9.23;6.00;;;;;;;;;;5004314;28;20124;-67
2022/05/01 13:53:32;;;;;;;9.63;5.93;;;;;;;;;;5004282;28;20241;-67
2022/05/01 13:55:57;;;;;;;9.10;5.75;;;;;;;;;;5002244;28;20031;-66
2022/05/01 13:58:23;;;;;;;9.20;5.88;;;;;;;;;;5003904;28;20053;-66
2022/05/01 14:00:48;;;;;;;10.25;6.20;;;;;;;;;;5004522;28;20032;-66
2022/05/01 14:03:14;;;;;;;10.20;6.38;;;;;;;;;;5002185;28;20448;-66
2022/05/01 14:05:39;;;;;;;10.07;6.78;;;;;;;;;;5001581;28;20029;-66
2022/05/01 14:08:07;;;;;;;9.82;6.90;;;;;;;;;;5002624;28;20411;-68
2022/05/01 14:10:34;;;;;;;12.00;7.07;;;;;;;;;;5007459;28;20209;-66
2022/05/01 14:12:59;;;;;;;10.55;6.95;;;;;;;;;;5004574;28;20138;-66
2022/05/01 14:15:25;;;;;;;9.25;6.82;;;;;;;;;;5004085;28;20064;-65
2022/05/01 14:17:56;;;;;;;10.25;7.00;;;;;;;;;;5002608;28;20029;-66
2022/05/01 14:20:21;;;;;;;10.23;6.90;;;;;;;;;;5003579;28;20591;-66
2022/05/01 14:22:47;;;;;;;8.57;7.25;;;;;;;;;;5004036;28;20267;-66
2022/05/01 14:25:15;;;;;;;9.45;6.65;;;;;;;;;;5003837;28;20029;-66
2022/05/01 14:27:41;;;;;;;12.10;7.03;;;;;;;;;;5002232;28;20120;-67
2022/05/01 14:30:06;;;;;;;7.95;6.78;;;;;;;;;;5003686;28;20033;-66
2022/05/01 14:32:38;;;;;;;8.80;6.60;;;;;;;;;;5018420;28;20028;-67
2022/05/01 14:35:04;;;;;;;8.85;6.75;;;;;;;;;;5002030;28;20686;-65
2022/05/01 14:37:38;;;;;;;8.73;6.22;;;;;;;;;;5003673;28;20468;-66
2022/05/01 14:40:05;;;;;;;10.23;5.90;;;;;;;;;;5003256;28;20215;-65
2022/05/01 14:42:33;;;;;;;8.13;6.25;;;;;;;;;;5002692;28;20553;-67
2022/05/01 14:45:03;;;;;;;9.60;6.40;;;;;;;;;;5001565;28;20116;-67
2022/05/01 14:47:34;;;;;;;12.52;6.78;;;;;;;;;;5003195;28;20691;-65
2022/05/01 14:50:03;;;;;;;8.75;6.10;;;;;;;;;;4984780;28;20021;-65
2022/05/01 14:52:29;;;;;;;8.63;6.40;;;;;;;;;;5003398;28;20060;-66
2022/05/01 14:54:55;;;;;;;8.65;6.30;;;;;;;;;;5003505;28;20579;-66
2022/05/01 14:57:22;;;;;;;8.00;6.00;;;;;;;;;;5002988;28;20043;-65
2022/05/01 15:08:10;;;;;;;8.88;5.88;;;;;;;;;;5003491;28;20025;-62
2022/05/01 15:10:36;;;;;;;8.20;5.63;;;;;;;;;;5002769;28;20071;-63
2022/05/01 15:13:06;;;;;;;9.07;5.88;;;;;;;;;;5003089;28;20485;-64
2022/05/01 15:15:47;;;;;;;8.57;6.18;;;;;;;;;;5000522;28;20014;-62
2022/05/01 15:18:16;;;;;;;8.73;6.28;;;;;;;;;;5003083;28;20118;-62